Time;durP1;ratioP1;P1;durP2;ratioP2;P2;SDS_P1;SDS_P2;PMS_P1;PMS_P2;Temp;Humidity;BMP_temperature;BMP_pressure;BME280_temperature;BME280_humidity;BME280_pressure;Samples;Min_cycle;Max_cycle;Signal;HPM_P1;HPM_P2
2022/12/01 00:01:14;;;;;;;35.37;11.03;;;;;;;3.64;100.00;96675.50;5056531;28;20224;-72
2022/12/01 00:03:41;;;;;;;34.13;11.27;;;;;;;3.64;100.00;96672.88;5055805;28;21221;-72
2022/12/01 00:06:11;;;;;;;29.90;10.60;;;;;;;3.80;100.00;96670.66;5056571;28;20227;-72
2022/12/01 00:08:37;;;;;;;35.00;11.83;;;;;;;3.71;100.00;96668.81;5056772;28;20212;-72
2022/12/01 00:11:04;;;;;;;31.93;10.53;;;;;;;3.76;100.00;96669.28;5056557;28;20215;-72
2022/12/01 00:13:33;;;;;;;39.70;11.70;;;;;;;3.95;100.00;96669.41;5055668;28;20204;-72
2022/12/01 00:16:09;;;;;;;36.67;11.83;;;;;;;3.92;100.00;96663.63;5057187;28;20233;-72
2022/12/01 00:18:36;;;;;;;33.97;11.03;;;;;;;3.91;100.00;96657.59;5055341;28;20204;-72
2022/12/01 00:21:02;;;;;;;35.40;11.30;;;;;;;3.98;100.00;96670.94;5055341;28;20226;-72
2022/12/01 00:23:29;;;;;;;31.97;11.20;;;;;;;3.75;100.00;96667.63;5056205;28;20838;-72
2022/12/01 00:26:02;;;;;;;35.43;12.23;;;;;;;3.79;100.00;96666.44;5054603;28;20232;-72
2022/12/01 00:28:29;;;;;;;36.90;10.73;;;;;;;3.84;100.00;96672.06;5055830;28;20209;-72
2022/12/01 00:30:56;;;;;;;35.40;11.80;;;;;;;3.90;100.00;96671.56;5056575;28;20200;-71
2022/12/01 00:33:23;;;;;;;37.83;11.27;;;;;;;3.91;100.00;96672.44;5055812;28;20739;-72
2022/12/01 00:35:50;;;;;;;33.63;12.53;;;;;;;3.83;100.00;96673.06;5055357;28;20216;-71
2022/12/01 00:38:16;;;;;;;37.87;11.77;;;;;;;3.80;100.00;96675.06;5056018;28;20333;-72
2022/12/01 00:40:43;;;;;;;37.77;12.17;;;;;;;3.66;100.00;96670.97;5055829;28;21423;-72
2022/12/01 00:43:09;;;;;;;36.57;10.87;;;;;;;3.78;100.00;96667.38;5056117;28;20580;-72
2022/12/01 00:45:36;;;;;;;36.97;11.30;;;;;;;3.77;100.00;96673.53;5058925;28;20714;-72
2022/12/01 00:48:04;;;;;;;35.17;12.07;;;;;;;3.90;100.00;96665.53;5060408;28;20696;-72
2022/12/01 00:50:31;;;;;;;33.80;11.30;;;;;;;3.92;100.00;96669.69;5059714;28;20200;-72
2022/12/01 00:52:57;;;;;;;35.87;11.97;;;;;;;3.81;100.00;96671.53;5059763;28;20210;-72
2022/12/01 00:55:24;;;;;;;31.77;10.30;;;;;;;3.83;100.00;96675.66;5059258;28;20228;-71
2022/12/01 00:57:50;;;;;;;37.07;11.30;;;;;;;3.77;100.00;96672.72;5060048;28;20579;-72
2022/12/01 01:00:17;;;;;;;29.57;10.20;;;;;;;3.85;100.00;96688.56;5059643;28;20231;-72
2022/12/01 01:02:44;;;;;;;38.50;11.93;;;;;;;3.85;100.00;96678.94;5059770;28;20784;-72
2022/12/01 01:05:12;;;;;;;34.23;11.37;;;;;;;3.96;100.00;96678.91;5058710;28;20664;-72
2022/12/01 01:07:38;;;;;;;37.93;11.73;;;;;;;3.93;100.00;96675.72;5059831;28;20668;-71
2022/12/01 01:10:06;;;;;;;29.40;10.37;;;;;;;3.88;100.00;96677.88;5059297;28;20201;-71
2022/12/01 01:12:33;;;;;;;37.13;11.50;;;;;;;3.78;100.00;96680.41;5059116;28;20299;-72
2022/12/01 01:14:59;;;;;;;32.50;11.10;;;;;;;3.74;100.00;96686.84;5059093;28;20275;-71
2022/12/01 01:17:26;;;;;;;39.13;11.90;;;;;;;3.78;100.00;96687.38;5059317;28;20207;-71
2022/12/01 01:19:53;;;;;;;31.30;10.80;;;;;;;3.75;100.00;96678.03;5060202;28;20678;-72
2022/12/01 01:22:20;;;;;;;35.67;12.20;;;;;;;3.90;100.00;96687.22;5065092;28;20214;-72
2022/12/01 01:24:47;;;;;;;31.03;11.00;;;;;;;3.53;100.00;96687.75;5059939;28;20231;-72
2022/12/01 01:27:13;;;;;;;37.23;12.90;;;;;;;3.75;100.00;96679.81;5059270;28;20211;-72
2022/12/01 01:29:41;;;;;;;37.77;12.90;;;;;;;3.81;100.00;96676.72;5058911;28;20730;-72
2022/12/01 01:32:08;;;;;;;36.77;12.30;;;;;;;3.85;100.00;96678.13;5058869;28;20275;-72
2022/12/01 01:34:34;;;;;;;35.43;11.03;;;;;;;3.88;100.00;96681.31;5057931;28;20224;-71
2022/12/01 01:37:01;;;;;;;34.37;12.40;;;;;;;3.79;100.00;96684.69;5059157;28;20197;-72
2022/12/01 01:39:29;;;;;;;34.43;12.27;;;;;;;3.87;100.00;96676.22;5058852;28;20261;-72
2022/12/01 01:41:55;;;;;;;37.03;11.23;;;;;;;3.70;100.00;96690.66;5058400;28;20661;-72
2022/12/01 01:44:48;;;;;;;40.60;12.63;;;;;;;3.90;100.00;96678.59;5058130;28;20212;-72
2022/12/01 01:47:19;;;;;;;38.17;11.93;;;;;;;3.62;100.00;96680.97;5058997;28;20203;-72
2022/12/01 01:49:46;;;;;;;38.13;12.53;;;;;;;3.63;100.00;96681.66;5058367;28;20196;-72
2022/12/01 01:52:14;;;;;;;35.17;12.57;;;;;;;3.67;100.00;96674.41;5058941;28;20208;-72
2022/12/01 01:54:46;;;;;;;30.30;11.93;;;;;;;3.77;100.00;96670.94;5058383;28;20238;-71
2022/12/01 01:57:17;;;;;;;35.63;12.17;;;;;;;3.49;100.00;96681.13;5058066;28;20217;-72
2022/12/01 01:59:47;;;;;;;36.93;13.07;;;;;;;3.45;100.00;96665.84;5058909;28;20231;-72
2022/12/01 02:02:14;;;;;;;39.57;13.67;;;;;;;3.51;100.00;96679.19;5058344;28;20691;-72
2022/12/01 02:04:46;;;;;;;34.73;12.27;;;;;;;3.50;100.00;96672.38;5058005;28;20226;-72
2022/12/01 02:07:16;;;;;;;34.00;12.00;;;;;;;3.58;100.00;96674.31;5058468;28;20219;-71
2022/12/01 02:09:44;;;;;;;35.73;11.73;;;;;;;3.61;100.00;96681.91;5059232;28;20217;-72
2022/12/01 02:12:24;;;;;;;36.13;12.23;;;;;;;3.75;100.00;96669.41;5058221;28;20215;-72
2022/12/01 02:15:22;;;;;;;36.87;12.93;;;;;;;3.69;100.00;96668.13;5057094;28;20224;-72
2022/12/01 02:17:59;;;;;;;32.23;11.60;;;;;;;3.66;100.00;96667.56;5059492;28;20215;-72
2022/12/01 02:21:07;;;;;;;39.33;13.03;;;;;;;3.77;100.00;96660.50;5058010;28;20226;-72
2022/12/01 02:24:04;;;;;;;33.20;12.40;;;;;;;3.77;100.00;96659.69;4995063;28;20863;-72
2022/12/01 02:26:42;;;;;;;37.17;12.40;;;;;;;3.73;100.00;96659.09;5058095;28;20229;-72
2022/12/01 02:29:26;;;;;;;45.80;13.90;;;;;;;3.58;100.00;96656.09;5057990;28;20257;-72
2022/12/01 02:31:59;;;;;;;40.83;14.20;;;;;;;3.53;100.00;96653.06;5058402;28;20325;-72
2022/12/01 02:34:30;;;;;;;44.87;13.70;;;;;;;3.48;100.00;96652.59;5056935;28;20692;-72
2022/12/01 02:37:05;;;;;;;44.30;14.63;;;;;;;3.49;100.00;96659.44;5057883;28;20207;-72
2022/12/01 02:39:34;;;;;;;49.37;14.30;;;;;;;3.60;100.00;96644.59;5057382;28;20199;-72
2022/12/01 02:42:07;;;;;;;40.57;13.90;;;;;;;3.56;100.00;96653.59;5058146;28;20207;-72
2022/12/01 02:44:39;;;;;;;43.30;14.17;;;;;;;3.50;100.00;96658.50;5056768;28;20224;-72
2022/12/01 02:47:13;;;;;;;48.33;14.77;;;;;;;3.78;100.00;96646.53;5057292;28;20581;-72
2022/12/01 02:49:45;;;;;;;47.67;14.80;;;;;;;3.88;100.00;96649.19;5057801;28;20668;-71
2022/12/01 02:52:14;;;;;;;45.83;15.27;;;;;;;3.70;100.00;96658.53;5056796;28;20214;-71
2022/12/01 02:54:43;;;;;;;43.03;14.47;;;;;;;3.47;100.00;96661.34;5056554;28;20224;-71
2022/12/01 02:57:12;;;;;;;54.63;14.80;;;;;;;3.76;100.00;96658.03;5057119;28;20208;-71
2022/12/01 02:59:41;;;;;;;44.27;15.13;;;;;;;3.70;100.00;96658.53;5057575;28;20197;-71
2022/12/01 03:02:17;;;;;;;46.70;15.57;;;;;;;3.64;100.00;96653.84;5057080;28;20204;-71
2022/12/01 03:04:56;;;;;;;38.70;12.63;;;;;;;3.70;100.00;96656.75;5056499;28;20254;-71
2022/12/01 03:07:44;;;;;;;45.97;14.33;;;;;;;3.74;100.00;96660.78;5057404;28;20594;-71
2022/12/01 03:10:19;;;;;;;42.03;13.47;;;;;;;3.80;100.00;96657.63;5057251;28;20865;-71
2022/12/01 03:12:58;;;;;;;46.77;14.17;;;;;;;3.78;100.00;96661.31;5056981;28;20208;-71
2022/12/01 03:15:32;;;;;;;46.37;14.03;;;;;;;3.62;100.00;96660.13;5056772;28;20231;-71
2022/12/01 03:18:10;;;;;;;39.80;13.30;;;;;;;3.33;100.00;96659.03;5057289;28;20211;-72
2022/12/01 03:20:42;;;;;;;46.43;14.80;;;;;;;3.42;100.00;96659.09;5057183;28;20234;-72
2022/12/01 03:23:14;;;;;;;40.43;12.80;;;;;;;3.37;100.00;96663.03;5057383;28;20275;-71
2022/12/01 03:25:44;;;;;;;35.80;13.00;;;;;;;3.55;100.00;96658.94;5055576;28;20216;-71
2022/12/01 03:28:15;;;;;;;37.47;13.20;;;;;;;3.54;100.00;96655.53;5056770;28;20206;-71
2022/12/01 03:30:43;;;;;;;35.40;12.37;;;;;;;3.53;100.00;96653.06;5057748;28;20199;-71
2022/12/01 03:33:17;;;;;;;45.17;13.00;;;;;;;3.68;100.00;96658.66;5056043;28;20219;-71
2022/12/01 03:35:50;;;;;;;37.23;12.73;;;;;;;3.65;100.00;96656.31;5055760;28;20619;-71
2022/12/01 03:38:21;;;;;;;44.80;12.80;;;;;;;3.63;100.00;96653.00;5056822;28;20211;-71
2022/12/01 03:40:51;;;;;;;39.40;12.17;;;;;;;3.62;100.00;96657.50;5056484;28;20714;-71
2022/12/01 03:43:21;;;;;;;37.50;12.60;;;;;;;3.57;100.00;96663.09;5055934;28;20246;-71
2022/12/01 03:45:55;;;;;;;38.33;12.00;;;;;;;3.65;100.00;96653.72;5055827;28;20599;-71
2022/12/01 03:48:24;;;;;;;44.53;14.47;;;;;;;3.72;100.00;96654.84;5056585;28;20860;-71
2022/12/01 03:50:58;;;;;;;35.30;12.20;;;;;;;3.62;100.00;96651.31;5056415;28;20676;-72
2022/12/01 03:53:29;;;;;;;39.63;12.57;;;;;;;3.77;100.00;96660.50;5056394;28;20296;-71
2022/12/01 03:56:01;;;;;;;35.53;11.63;;;;;;;3.77;100.00;96660.50;5054002;28;20257;-71
2022/12/01 03:58:33;;;;;;;37.43;11.33;;;;;;;3.57;100.00;96649.25;5056013;28;20199;-71
2022/12/01 04:01:02;;;;;;;43.63;12.73;;;;;;;3.54;100.00;96652.06;5056602;28;20275;-71
2022/12/01 04:03:30;;;;;;;36.40;11.30;;;;;;;3.67;100.00;96646.56;5056003;28;20204;-71
2022/12/01 04:05:56;;;;;;;31.73;10.67;;;;;;;3.21;100.00;96652.22;5055546;28;20224;-71
2022/12/01 04:08:24;;;;;;;37.87;12.10;;;;;;;3.35;100.00;96651.94;5056022;28;20215;-71
2022/12/01 04:10:50;;;;;;;28.47;10.40;;;;;;;3.41;100.00;96635.78;5056619;28;20659;-71
2022/12/01 04:13:21;;;;;;;40.97;12.57;;;;;;;3.64;100.00;96654.66;5055803;28;20203;-71
2022/12/01 04:15:48;;;;;;;40.90;11.77;;;;;;;3.59;100.00;96652.53;5055890;28;20224;-71
2022/12/01 04:18:15;;;;;;;29.57;12.03;;;;;;;3.66;100.00;96650.13;5056334;28;20208;-71
2022/12/01 04:20:44;;;;;;;33.90;10.97;;;;;;;3.73;100.00;96655.69;5059770;28;20737;-71
2022/12/01 04:23:58;;;;;;;38.40;12.20;;;;;;;3.77;100.00;96654.47;5060108;28;20579;-71
2022/12/01 04:25:59;;;;;;;38.90;11.90;;;;;;;3.80;100.00;96649.00;5059834;28;20224;-71
2022/12/01 04:28:26;;;;;;;35.40;13.57;;;;;;;3.70;100.00;96664.59;5060462;28;20200;-71
2022/12/01 04:30:52;;;;;;;38.23;11.93;;;;;;;3.70;100.00;96654.16;5060134;28;20204;-71
2022/12/01 04:33:19;;;;;;;44.17;12.37;;;;;;;3.79;100.00;96653.41;5060258;28;20207;-71
2022/12/01 04:35:56;;;;;;;39.80;12.23;;;;;;;3.77;100.00;96650.09;5059627;28;20273;-71
2022/12/01 04:38:22;;;;;;;38.73;12.37;;;;;;;3.30;100.00;96657.50;5060536;28;20207;-71
2022/12/01 04:40:49;;;;;;;40.63;12.93;;;;;;;3.29;100.00;96649.81;5059865;28;20223;-71
2022/12/01 04:43:15;;;;;;;47.53;11.33;;;;;;;3.17;100.00;96658.59;5059149;28;20694;-71
2022/12/01 04:45:42;;;;;;;40.03;13.10;;;;;;;3.16;100.00;96651.75;5059470;28;20276;-71
2022/12/01 04:48:08;;;;;;;50.37;13.13;;;;;;;3.39;100.00;96656.75;5059044;28;20204;-71
2022/12/01 04:50:35;;;;;;;44.07;13.30;;;;;;;3.43;100.00;96655.56;5061299;28;20210;-72
2022/12/01 04:53:04;;;;;;;42.00;13.37;;;;;;;3.62;100.00;96653.94;5061135;28;20210;-71
2022/12/01 04:55:30;;;;;;;34.40;12.27;;;;;;;3.57;100.00;96662.28;5059108;28;20219;-72
2022/12/01 04:58:00;;;;;;;39.93;13.23;;;;;;;3.52;100.00;96659.22;5059953;28;21260;-71
2022/12/01 05:00:26;;;;;;;43.70;12.63;;;;;;;3.27;100.00;96665.56;5059939;28;20223;-71
2022/12/01 05:02:53;;;;;;;42.90;12.83;;;;;;;3.44;100.00;96666.81;5060090;28;20214;-71
2022/12/01 05:05:19;;;;;;;41.27;13.00;;;;;;;3.43;100.00;96660.78;5059016;28;20229;-71
2022/12/01 05:07:46;;;;;;;40.10;13.40;;;;;;;3.61;100.00;96658.47;5060057;28;20216;-71
2022/12/01 05:10:14;;;;;;;39.77;12.30;;;;;;;3.70;100.00;96658.53;5059285;28;20800;-71
2022/12/01 05:12:40;;;;;;;40.13;13.07;;;;;;;3.54;100.00;96652.06;5059684;28;20577;-71
2022/12/01 05:15:08;;;;;;;43.17;13.30;;;;;;;3.73;100.00;96653.91;5058157;28;20234;-71
2022/12/01 05:17:34;;;;;;;42.87;13.47;;;;;;;3.70;100.00;96663.75;5059988;28;20210;-71
2022/12/01 05:22:45;;;;;;;39.17;11.17;;;;;;;3.53;100.00;96663.47;5059534;28;20210;-71
2022/12/01 05:25:11;;;;;;;43.83;12.40;;;;;;;3.45;100.00;96663.25;5058246;28;20241;-71
2022/12/01 05:27:39;;;;;;;40.23;13.13;;;;;;;3.66;100.00;96657.94;5059062;28;20579;-71
2022/12/01 05:30:07;;;;;;;42.70;11.83;;;;;;;3.64;100.00;96651.22;5059476;28;20203;-71
2022/12/01 05:32:33;;;;;;;39.57;12.13;;;;;;;3.73;100.00;96653.09;5058936;28;20210;-71
2022/12/01 05:35:00;;;;;;;38.80;12.93;;;;;;;3.65;100.00;96658.06;5058586;28;20230;-71
2022/12/01 05:37:31;;;;;;;37.63;11.47;;;;;;;3.36;100.00;96658.78;5059379;28;20203;-71
2022/12/01 05:39:57;;;;;;;39.13;12.40;;;;;;;3.39;100.00;96666.38;5059514;28;20207;-71
2022/12/01 05:42:24;;;;;;;32.07;10.67;;;;;;;3.35;100.00;96654.53;5058760;28;20240;-71
2022/12/01 05:44:51;;;;;;;41.93;13.27;;;;;;;3.42;100.00;96659.09;5058089;28;20228;-71
2022/12/01 05:47:18;;;;;;;42.80;12.93;;;;;;;3.49;100.00;96659.44;5059003;28;20212;-72
2022/12/01 05:49:44;;;;;;;39.30;12.10;;;;;;;3.50;100.00;96664.56;5059323;28;20208;-71
2022/12/01 05:52:11;;;;;;;43.30;12.73;;;;;;;3.46;100.00;96664.91;5058857;28;20203;-71
2022/12/01 05:54:37;;;;;;;34.97;12.33;;;;;;;3.53;100.00;96660.88;5058430;28;20234;-71
2022/12/01 05:57:04;;;;;;;37.10;11.53;;;;;;;3.32;100.00;96662.59;5058943;28;20211;-71
2022/12/01 05:59:31;;;;;;;40.83;12.73;;;;;;;3.15;100.00;96668.31;5058695;28;20196;-71
2022/12/01 06:01:58;;;;;;;31.80;12.67;;;;;;;3.45;100.00;96666.69;5059601;28;20227;-71
2022/12/01 06:04:25;;;;;;;45.23;13.33;;;;;;;3.42;100.00;96668.72;5058509;28;20204;-71
2022/12/01 06:06:51;;;;;;;46.60;12.93;;;;;;;3.57;100.00;96659.66;5058108;28;20218;-71
2022/12/01 06:09:18;;;;;;;39.50;12.43;;;;;;;3.59;100.00;96665.56;5058627;28;20207;-71
2022/12/01 06:11:45;;;;;;;36.10;11.93;;;;;;;3.56;100.00;96677.06;5059278;28;20568;-71
2022/12/01 06:14:11;;;;;;;35.33;11.33;;;;;;;3.36;100.00;96664.84;5057581;28;20214;-71
2022/12/01 06:16:38;;;;;;;34.27;12.37;;;;;;;3.44;100.00;96667.63;5058634;28;20233;-71
2022/12/01 06:19:05;;;;;;;38.80;12.70;;;;;;;3.52;100.00;96669.63;5058918;28;20211;-71
2022/12/01 06:21:32;;;;;;;40.00;12.67;;;;;;;3.53;100.00;96666.09;5057894;28;20230;-71
2022/12/01 06:23:58;;;;;;;43.60;13.77;;;;;;;3.62;100.00;96665.34;5057349;28;20733;-71
2022/12/01 06:26:25;;;;;;;44.00;13.80;;;;;;;3.74;100.00;96665.97;5058403;28;20230;-71
2022/12/01 06:28:51;;;;;;;47.00;14.07;;;;;;;3.62;100.00;96677.38;5058281;28;20201;-71
2022/12/01 06:31:18;;;;;;;36.63;12.90;;;;;;;3.61;100.00;96674.09;5057855;28;20204;-72
2022/12/01 06:33:44;;;;;;;42.30;12.80;;;;;;;3.64;100.00;96678.09;5057520;28;20207;-71
2022/12/01 06:36:12;;;;;;;39.50;12.60;;;;;;;3.82;100.00;96675.78;5057234;28;20228;-71
2022/12/01 06:38:39;;;;;;;42.33;12.67;;;;;;;3.65;100.00;96684.97;5058060;28;20691;-72
2022/12/01 06:41:05;;;;;;;40.43;13.90;;;;;;;3.57;100.00;96677.91;5057892;28;20232;-71
2022/12/01 06:43:32;;;;;;;47.10;14.13;;;;;;;3.71;100.00;96683.63;5057383;28;20200;-71
2022/12/01 06:45:58;;;;;;;38.77;11.70;;;;;;;3.84;100.00;96673.88;5057812;28;20227;-71
2022/12/01 06:48:25;;;;;;;40.80;13.10;;;;;;;3.52;100.00;96688.69;5057655;28;20212;-71
2022/12/01 06:50:51;;;;;;;36.47;12.97;;;;;;;3.73;100.00;96679.16;5057815;28;20208;-71
2022/12/01 06:53:19;;;;;;;34.87;12.80;;;;;;;3.78;100.00;96687.38;5058071;28;20208;-71
2022/12/01 06:55:46;;;;;;;37.00;12.40;;;;;;;3.80;100.00;96685.50;5056870;28;20238;-71
2022/12/01 06:58:12;;;;;;;40.33;11.83;;;;;;;3.72;100.00;96686.13;5057503;28;20207;-71
2022/12/01 07:00:39;;;;;;;42.17;13.47;;;;;;;3.84;100.00;96692.09;5058058;28;20235;-71
2022/12/01 07:03:05;;;;;;;43.53;12.53;;;;;;;3.87;100.00;96695.31;5057459;28;20214;-71
2022/12/01 07:05:32;;;;;;;38.03;12.23;;;;;;;3.94;100.00;96687.81;5056104;28;20223;-71
2022/12/01 07:07:59;;;;;;;38.33;13.00;;;;;;;3.68;100.00;96697.75;5057709;28;20213;-71
2022/12/01 07:10:27;;;;;;;38.80;11.70;;;;;;;3.89;100.00;96701.19;5057352;28;20204;-71
2022/12/01 07:12:55;;;;;;;35.60;12.67;;;;;;;3.67;100.00;96698.69;5057313;28;20680;-71
2022/12/01 07:15:23;;;;;;;33.10;11.60;;;;;;;3.83;100.00;96698.28;5056691;28;20227;-71
2022/12/01 07:17:49;;;;;;;36.20;12.47;;;;;;;3.83;100.00;96698.28;5056813;28;20204;-71
2022/12/01 07:20:16;;;;;;;38.50;13.37;;;;;;;3.80;100.00;96699.34;5056747;28;20211;-71
2022/12/01 07:22:43;;;;;;;36.93;12.27;;;;;;;3.78;100.00;96698.66;5056881;28;20231;-71
2022/12/01 07:25:09;;;;;;;35.80;12.20;;;;;;;3.82;100.00;96705.28;5056499;28;20223;-71
2022/12/01 07:27:37;;;;;;;39.67;12.77;;;;;;;3.79;100.00;96702.94;5056764;28;20200;-71
2022/12/01 07:30:05;;;;;;;44.00;13.00;;;;;;;3.71;100.00;96710.50;5057274;28;20208;-71
2022/12/01 07:32:31;;;;;;;42.23;11.83;;;;;;;3.78;100.00;96716.91;5057239;28;20211;-71
2022/12/01 07:34:58;;;;;;;38.40;13.20;;;;;;;3.79;100.00;96720.31;5055428;28;20227;-71
2022/12/01 07:37:24;;;;;;;36.17;12.50;;;;;;;3.81;100.00;96721.03;5057009;28;20688;-71
2022/12/01 07:39:51;;;;;;;41.03;13.97;;;;;;;3.84;100.00;96721.59;5057302;28;20206;-71
2022/12/01 07:42:17;;;;;;;36.07;12.47;;;;;;;3.48;100.00;96725.53;5056573;28;20679;-71
2022/12/01 07:44:45;;;;;;;37.63;12.57;;;;;;;3.83;100.00;96727.78;5056898;28;20232;-72
2022/12/01 07:47:12;;;;;;;32.40;12.30;;;;;;;3.82;100.00;96725.31;5058319;28;20212;-71
2022/12/01 07:49:38;;;;;;;38.77;12.40;;;;;;;3.90;100.00;96723.72;5056886;28;20212;-71
2022/12/01 07:52:04;;;;;;;37.80;11.40;;;;;;;3.86;100.00;96732.75;5056616;28;20215;-71
2022/12/01 07:54:31;;;;;;;36.07;13.30;;;;;;;3.89;100.00;96722.06;5055846;28;20284;-71
2022/12/01 07:56:57;;;;;;;30.37;12.07;;;;;;;4.00;100.00;96719.41;5057434;28;20743;-71
2022/12/01 07:59:24;;;;;;;40.53;12.10;;;;;;;4.04;100.00;96720.81;5056857;28;20231;-71
2022/12/01 08:01:52;;;;;;;42.03;13.00;;;;;;;4.02;100.00;96727.94;5056231;28;20221;-71
2022/12/01 08:04:18;;;;;;;35.97;12.50;;;;;;;3.70;100.00;96721.91;5056145;28;20208;-71
2022/12/01 08:06:45;;;;;;;31.30;11.93;;;;;;;3.77;100.00;96728.28;5057034;28;20214;-71
2022/12/01 08:09:11;;;;;;;33.87;11.97;;;;;;;4.01;100.00;96731.50;5056659;28;20664;-71
2022/12/01 08:11:38;;;;;;;31.47;12.17;;;;;;;3.89;100.00;96732.47;5056946;28;20202;-71
2022/12/01 08:14:04;;;;;;;34.43;11.97;;;;;;;4.07;100.00;96733.59;5056397;28;20212;-71
2022/12/01 08:16:31;;;;;;;41.70;11.73;;;;;;;4.02;100.00;96727.09;5056277;28;20708;-71
2022/12/01 08:18:59;;;;;;;40.27;13.27;;;;;;;3.79;100.00;96734.19;5056766;28;20223;-71
2022/12/01 08:21:25;;;;;;;39.87;12.80;;;;;;;3.74;100.00;96733.75;5056281;28;20224;-71
2022/12/01 08:23:54;;;;;;;36.67;10.87;;;;;;;3.91;100.00;96729.78;5056191;28;20204;-71
2022/12/01 08:26:21;;;;;;;37.83;11.63;;;;;;;3.82;100.00;96731.34;5056739;28;20257;-71
2022/12/01 08:28:48;;;;;;;34.57;12.27;;;;;;;3.90;100.00;96728.94;5056481;28;20214;-71
2022/12/01 08:31:18;;;;;;;33.43;12.13;;;;;;;4.06;100.00;96721.53;5056025;28;20215;-71
2022/12/01 08:33:45;;;;;;;39.00;12.63;;;;;;;4.09;100.00;96723.88;5055982;28;20211;-71
2022/12/01 08:36:13;;;;;;;37.47;11.20;;;;;;;4.21;100.00;96717.63;5056112;28;20231;-73
2022/12/01 08:38:43;;;;;;;46.67;13.27;;;;;;;4.07;100.00;96715.34;5056278;28;20208;-74
2022/12/01 08:41:09;;;;;;;36.37;12.27;;;;;;;3.87;100.00;96718.75;5056164;28;20207;-72
2022/12/01 08:43:38;;;;;;;32.10;10.67;;;;;;;3.81;100.00;96726.25;5055682;28;20560;-73
2022/12/01 08:46:06;;;;;;;34.80;10.07;;;;;;;4.09;100.00;96718.66;5056147;28;20259;-73
2022/12/01 08:48:33;;;;;;;37.77;12.63;;;;;;;3.84;100.00;96721.59;5055740;28;20200;-73
2022/12/01 08:51:05;;;;;;;36.83;11.97;;;;;;;3.91;100.00;96714.13;5055931;28;20207;-73
2022/12/01 08:53:34;;;;;;;33.70;10.80;;;;;;;3.99;100.00;96722.16;5055489;28;20223;-74
2022/12/01 08:56:02;;;;;;;39.53;13.27;;;;;;;3.94;100.00;96725.13;5055736;28;20230;-72
2022/12/01 08:58:28;;;;;;;34.47;11.60;;;;;;;3.92;100.00;96726.19;5056488;28;20207;-73
2022/12/01 09:01:01;;;;;;;36.20;11.90;;;;;;;3.95;100.00;96721.56;5056442;28;20212;-73
2022/12/01 09:03:27;;;;;;;35.70;11.70;;;;;;;3.79;100.00;96731.59;5055415;28;20310;-73
2022/12/01 09:05:54;;;;;;;39.97;12.23;;;;;;;3.96;100.00;96728.44;5057908;28;20226;-72
2022/12/01 09:11:05;;;;;;;38.93;11.37;;;;;;;4.11;100.00;96732.41;5058057;28;20210;-73
2022/12/01 09:13:34;;;;;;;34.80;11.30;;;;;;;4.01;100.00;96731.50;5058860;28;21027;-73
2022/12/01 09:16:03;;;;;;;37.90;12.10;;;;;;;4.10;100.00;96730.75;5059617;28;20220;-73
2022/12/01 09:18:30;;;;;;;35.70;11.13;;;;;;;4.09;100.00;96728.28;5059438;28;20200;-73
2022/12/01 09:20:57;;;;;;;40.43;12.23;;;;;;;4.21;100.00;96733.28;5059244;28;20306;-73
2022/12/01 09:23:24;;;;;;;40.13;12.93;;;;;;;4.20;100.00;96731.66;5060917;28;20231;-73
2022/12/01 09:25:52;;;;;;;33.63;11.57;;;;;;;4.05;100.00;96732.91;5059822;28;20227;-73
2022/12/01 09:28:20;;;;;;;35.53;13.03;;;;;;;4.24;100.00;96731.25;5058141;28;20200;-73
2022/12/01 09:30:47;;;;;;;41.80;12.87;;;;;;;4.40;100.00;96723.81;5058997;28;20204;-73
2022/12/01 09:33:14;;;;;;;38.00;12.37;;;;;;;4.43;100.00;96722.72;5059270;28;20211;-73
2022/12/01 09:35:40;;;;;;;38.17;12.27;;;;;;;4.25;100.00;96729.47;5058176;28;20220;-73
2022/12/01 09:38:07;;;;;;;35.93;12.40;;;;;;;4.26;100.00;96723.28;5059006;28;20219;-74
2022/12/01 09:40:38;;;;;;;37.03;13.30;;;;;;;4.26;100.00;96729.34;5059116;28;20235;-74
2022/12/01 09:43:11;;;;;;;37.97;11.90;;;;;;;4.36;100.00;96721.59;5058886;28;20240;-74
2022/12/01 09:45:44;;;;;;;40.00;13.10;;;;;;;4.48;100.00;96724.00;5057698;28;20805;-74
2022/12/01 09:48:22;;;;;;;33.20;11.93;;;;;;;4.37;100.00;96728.47;5058883;28;20295;-73
2022/12/01 09:50:48;;;;;;;36.97;11.63;;;;;;;4.40;100.00;96723.81;5059124;28;20214;-73
2022/12/01 09:53:20;;;;;;;44.63;12.53;;;;;;;4.35;100.00;96719.91;5058703;28;20207;-73
2022/12/01 09:55:48;;;;;;;34.63;12.57;;;;;;;4.26;100.00;96726.75;5058333;28;20238;-73
2022/12/01 09:58:18;;;;;;;40.20;12.90;;;;;;;4.32;100.00;96720.19;5058646;28;20208;-73
2022/12/01 10:00:48;;;;;;;36.73;11.70;;;;;;;4.34;100.00;96723.47;5059031;28;20203;-73
2022/12/01 10:03:25;;;;;;;38.47;12.23;;;;;;;4.44;100.00;96724.38;5058311;28;20236;-74
2022/12/01 10:05:54;;;;;;;37.33;12.70;;;;;;;4.35;100.00;96719.91;5058261;28;20230;-73
2022/12/01 10:08:23;;;;;;;39.60;11.87;;;;;;;4.20;100.00;96715.16;5058249;28;20212;-73
2022/12/01 10:10:54;;;;;;;38.03;12.30;;;;;;;4.30;100.00;96714.25;5059437;28;20208;-73
2022/12/01 10:13:23;;;;;;;40.23;13.03;;;;;;;4.46;100.00;96706.81;5056662;28;20205;-74
2022/12/01 10:16:00;;;;;;;38.63;12.37;;;;;;;4.36;100.00;96711.97;5057038;28;20228;-73
2022/12/01 10:18:38;;;;;;;43.73;12.20;;;;;;;4.57;100.00;96699.75;5056445;28;21096;-74
2022/12/01 10:21:11;;;;;;;37.43;13.90;;;;;;;4.52;100.00;96707.13;5058258;28;20214;-73
2022/12/01 10:23:50;;;;;;;40.10;13.83;;;;;;;4.44;100.00;96704.34;5056837;28;20216;-74
2022/12/01 10:26:25;;;;;;;39.63;12.10;;;;;;;4.56;100.00;96699.88;5058497;28;20728;-74
2022/12/01 10:29:10;;;;;;;40.97;14.03;;;;;;;4.69;100.00;96693.47;5058761;28;20196;-73
2022/12/01 10:31:47;;;;;;;34.83;12.70;;;;;;;4.53;100.00;96681.84;5058187;28;20212;-74
2022/12/01 10:34:16;;;;;;;43.90;13.70;;;;;;;4.27;100.00;96685.84;5057247;28;20856;-73
2022/12/01 10:36:43;;;;;;;35.67;11.63;;;;;;;4.32;100.00;96683.66;5057047;28;20200;-73
2022/12/01 10:39:17;;;;;;;38.73;13.20;;;;;;;4.53;100.00;96687.06;5057725;28;20204;-74
2022/12/01 10:41:45;;;;;;;39.43;13.43;;;;;;;4.39;100.00;96684.78;5057152;28;20203;-73
2022/12/01 10:44:12;;;;;;;33.87;11.13;;;;;;;4.45;100.00;96685.09;5055498;28;20204;-73
2022/12/01 10:46:46;;;;;;;37.57;12.37;;;;;;;4.45;100.00;96682.50;5057587;28;20477;-73
2022/12/01 10:49:14;;;;;;;42.63;12.73;;;;;;;4.30;100.00;96680.34;5058149;28;20601;-74
2022/12/01 10:51:57;;;;;;;40.67;11.93;;;;;;;4.45;100.00;96673.84;5057236;28;21335;-73
2022/12/01 10:54:32;;;;;;;44.10;13.27;;;;;;;4.54;100.00;96673.06;5054863;28;20204;-73
2022/12/01 10:56:59;;;;;;;40.73;11.77;;;;;;;4.15;100.00;96680.81;5057853;28;20215;-74
2022/12/01 10:59:31;;;;;;;34.27;11.00;;;;;;;4.30;100.00;96669.91;5057755;28;20212;-73
2022/12/01 11:02:00;;;;;;;40.90;13.27;;;;;;;4.40;100.00;96668.19;5056737;28;20208;-73
2022/12/01 11:04:43;;;;;;;40.77;13.93;;;;;;;4.51;100.00;96663.72;5056587;28;20206;-73
2022/12/01 11:07:16;;;;;;;42.13;12.40;;;;;;;4.49;100.00;96670.03;5057594;28;20222;-73
2022/12/01 11:09:45;;;;;;;42.47;13.47;;;;;;;4.62;100.00;96665.41;5058007;28;20208;-73
2022/12/01 11:12:15;;;;;;;39.93;13.03;;;;;;;4.65;100.00;96659.94;5057326;28;20200;-74
2022/12/01 11:14:45;;;;;;;42.10;13.13;;;;;;;4.68;100.00;96670.13;5056373;28;20227;-73
2022/12/01 11:17:30;;;;;;;39.17;12.87;;;;;;;4.46;100.00;96657.25;5056404;28;20203;-74
2022/12/01 11:19:56;;;;;;;42.13;13.33;;;;;;;4.53;100.00;96667.03;5056475;28;20218;-74
2022/12/01 11:22:25;;;;;;;40.13;13.77;;;;;;;4.67;100.00;96663.25;5057446;28;20225;-73
2022/12/01 11:25:01;;;;;;;45.50;14.20;;;;;;;4.65;100.00;96654.72;5055479;28;20878;-73
2022/12/01 11:27:31;;;;;;;41.50;13.20;;;;;;;4.62;100.00;96661.03;5056112;28;20204;-73
2022/12/01 11:30:03;;;;;;;38.53;13.53;;;;;;;4.73;100.00;96658.31;5056547;28;20204;-73
2022/12/01 11:32:35;;;;;;;38.83;13.80;;;;;;;4.81;100.00;96655.06;5057169;28;20544;-73